Time,TemperatureF,DewpointF,PressureIn,WindDirection,WindDirectionDegrees,WindSpeedMPH,WindSpeedGustMPH,Humidity,HourlyPrecipIn,Conditions,Clouds,dailyrainin,SoftwareType,DateUTC
2013-03-19 00:02:00,47.5,45.9,30.13,South,175,0.0,3.0,94,0.00,,,0.01,meteohub,2013-03-19 07:02:00,
2013-03-19 00:07:00,47.5,45.9,30.12,SE,142,2.0,3.0,94,0.00,,,0.00,meteohub,2013-03-19 07:07:00,
2013-03-19 00:13:00,47.5,45.9,30.12,SSW,212,2.0,3.0,94,0.00,,,0.00,meteohub,2013-03-19 07:13:00,
2013-03-19 00:18:00,47.5,45.9,30.12,South,185,4.0,5.0,94,0.00,,,0.00,meteohub,2013-03-19 07:18:00,
2013-03-19 00:23:00,47.5,45.9,30.12,South,174,0.0,5.0,94,0.00,,,0.00,meteohub,2013-03-19 07:23:00,
2013-03-19 00:28:00,47.5,45.9,30.12,SSE,158,3.0,5.0,94,0.00,,,0.00,meteohub,2013-03-19 07:28:00,
2013-03-19 00:33:00,47.5,45.9,30.12,SSW,194,4.0,5.0,94,0.00,,,0.00,meteohub,2013-03-19 07:33:00,
2013-03-19 00:38:00,47.5,45.9,30.12,SSW,194,5.0,5.0,94,0.00,,,0.00,meteohub,2013-03-19 07:38:00,
2013-03-19 00:43:00,47.5,45.9,30.12,South,174,3.0,6.0,94,0.00,,,0.00,meteohub,2013-03-19 07:43:00,
2013-03-19 00:48:00,47.5,45.9,30.13,SE,144,2.0,7.0,94,0.00,,,0.00,meteohub,2013-03-19 07:48:00,
2013-03-19 00:53:00,47.5,45.9,30.12,South,178,3.0,7.0,94,0.00,,,0.00,meteohub,2013-03-19 07:53:00,
2013-03-19 00:58:00,47.5,45.9,30.12,SE,137,1.0,7.0,94,0.00,,,0.00,meteohub,2013-03-19 07:58:00,
2013-03-19 01:03:00,47.5,45.9,30.12,SE,134,2.0,4.0,94,0.00,,,0.00,meteohub,2013-03-19 08:03:00,
2013-03-19 01:09:00,47.5,45.9,30.12,SE,134,0.0,4.0,94,0.00,,,0.00,meteohub,2013-03-19 08:09:00,
2013-03-19 01:14:00,47.7,46.0,30.13,South,171,3.0,4.0,94,0.00,,,0.00,meteohub,2013-03-19 08:14:00,
2013-03-19 01:19:00,47.7,46.0,30.13,SSE,155,3.0,4.0,94,0.00,,,0.00,meteohub,2013-03-19 08:19:00,
2013-03-19 01:24:00,47.8,46.2,30.12,South,173,0.0,6.0,94,0.00,,,0.00,meteohub,2013-03-19 08:24:00,
2013-03-19 01:29:00,47.8,46.2,30.12,SSE,150,0.0,6.0,94,0.00,,,0.00,meteohub,2013-03-19 08:29:00,
2013-03-19 01:34:00,47.8,45.9,30.13,SSE,161,1.0,6.0,93,0.00,,,0.00,meteohub,2013-03-19 08:34:00,
2013-03-19 01:39:00,47.8,45.9,30.12,SSW,192,1.0,3.0,93,0.00,,,0.00,meteohub,2013-03-19 08:39:00,
2013-03-19 01:44:00,47.8,45.9,30.12,SE,146,2.0,5.0,93,0.00,,,0.00,meteohub,2013-03-19 08:44:00,
2013-03-19 01:49:00,47.8,45.9,30.12,SE,146,0.0,5.0,93,0.00,,,0.00,meteohub,2013-03-19 08:49:00,
2013-03-19 01:54:00,47.8,45.9,30.12,SE,146,0.0,5.0,93,0.00,,,0.00,meteohub,2013-03-19 08:54:00,
2013-03-19 01:59:00,47.8,45.9,30.12,SE,142,0.0,2.0,93,0.00,,,0.00,meteohub,2013-03-19 08:59:00,
2013-03-19 02:04:00,47.8,45.9,30.12,SE,142,1.0,3.0,93,0.00,,,0.00,meteohub,2013-03-19 09:04:00,
2013-03-19 02:09:00,48.0,46.0,30.12,SE,142,0.0,3.0,93,0.00,,,0.00,meteohub,2013-03-19 09:09:00,
2013-03-19 02:14:00,48.2,46.2,30.12,SE,142,0.0,3.0,93,0.00,,,0.00,meteohub,2013-03-19 09:14:00,
2013-03-19 02:19:00,48.2,46.2,30.12,SE,142,0.0,3.0,93,0.00,,,0.00,meteohub,2013-03-19 09:19:00,
2013-03-19 02:24:00,48.4,46.2,30.12,SE,142,0.0,3.0,92,0.00,,,0.00,meteohub,2013-03-19 09:24:00,
2013-03-19 02:29:00,48.2,46.0,30.11,SE,142,0.0,1.0,92,0.00,,,0.00,meteohub,2013-03-19 09:29:00,
2013-03-19 02:35:00,48.2,46.0,30.12,SE,142,0.0,1.0,92,0.00,,,0.00,meteohub,2013-03-19 09:35:00,
2013-03-19 02:40:00,48.0,45.9,30.12,SE,142,0.0,1.0,92,0.00,,,0.00,meteohub,2013-03-19 09:40:00,
2013-03-19 02:45:00,48.4,45.9,30.12,SE,142,1.0,0.0,91,0.00,,,0.00,meteohub,2013-03-19 09:45:00,
2013-03-19 02:50:00,48.6,46.0,30.12,SE,142,0.0,1.0,91,0.00,,,0.00,meteohub,2013-03-19 09:50:00,
2013-03-19 02:55:00,48.7,45.9,30.12,SE,142,0.0,2.0,90,0.00,,,0.00,meteohub,2013-03-19 09:55:00,
2013-03-19 03:00:00,48.6,45.7,30.12,SE,142,0.0,2.0,90,0.00,,,0.00,meteohub,2013-03-19 10:00:00,
2013-03-19 03:05:00,48.7,45.9,30.12,SE,142,0.0,2.0,90,0.00,,,0.00,meteohub,2013-03-19 10:05:00,
2013-03-19 03:10:00,48.7,45.7,30.12,SE,142,0.0,0.0,89,0.00,,,0.00,meteohub,2013-03-19 10:10:00,
2013-03-19 03:15:00,48.7,45.9,30.12,SE,142,0.0,0.0,90,0.00,,,0.00,meteohub,2013-03-19 10:15:00,
2013-03-19 03:20:00,48.6,45.7,30.12,SE,142,0.0,0.0,90,0.00,,,0.00,meteohub,2013-03-19 10:20:00,
2013-03-19 03:25:00,48.6,45.7,30.11,SE,142,0.0,0.0,90,0.00,,,0.00,meteohub,2013-03-19 10:25:00,
2013-03-19 03:30:00,48.6,45.7,30.11,SE,142,0.0,0.0,90,0.00,,,0.00,meteohub,2013-03-19 10:30:00,
2013-03-19 03:35:00,48.7,45.7,30.11,SE,142,0.0,1.0,89,0.00,,,0.00,meteohub,2013-03-19 10:35:00,
2013-03-19 03:40:00,48.7,45.7,30.10,SE,142,0.0,1.0,89,0.00,,,0.00,meteohub,2013-03-19 10:40:00,
2013-03-19 03:45:00,48.7,45.7,30.10,SE,142,0.0,0.0,89,0.00,,,0.00,meteohub,2013-03-19 10:45:00,
2013-03-19 03:50:00,48.7,45.7,30.10,SE,142,0.0,0.0,89,0.00,,,0.00,meteohub,2013-03-19 10:50:00,
2013-03-19 03:55:00,48.7,45.7,30.10,SE,142,0.0,1.0,89,0.00,,,0.00,meteohub,2013-03-19 10:55:00,
2013-03-19 04:00:00,48.7,45.3,30.10,SE,142,0.0,1.0,88,0.00,,,0.00,meteohub,2013-03-19 11:00:00,
2013-03-19 04:05:00,48.7,45.3,30.10,SSW,203,2.0,4.0,88,0.00,,,0.00,meteohub,2013-03-19 11:05:00,
2013-03-19 04:10:00,48.7,45.7,30.09,SSW,202,2.0,4.0,89,0.00,,,0.00,meteohub,2013-03-19 11:10:00,
2013-03-19 04:15:00,48.6,45.5,30.10,SSW,203,0.0,4.0,89,0.00,,,0.00,meteohub,2013-03-19 11:15:00,
2013-03-19 04:20:00,48.6,45.5,30.09,SSW,203,0.0,2.0,89,0.00,,,0.00,meteohub,2013-03-19 11:20:00,
2013-03-19 04:25:00,48.6,45.5,30.09,SSW,203,0.0,2.0,89,0.00,,,0.00,meteohub,2013-03-19 11:25:00,
2013-03-19 04:30:00,48.0,45.1,30.09,SSW,202,0.0,2.0,90,0.00,,,0.00,meteohub,2013-03-19 11:30:00,
2013-03-19 04:35:00,47.8,45.0,30.10,SSW,202,0.0,1.0,90,0.00,,,0.00,meteohub,2013-03-19 11:35:00,
2013-03-19 04:40:00,47.8,45.3,30.09,SSW,203,0.0,1.0,91,0.00,,,0.00,meteohub,2013-03-19 11:40:00,
2013-03-19 04:45:00,47.8,45.3,30.09,SSW,202,0.0,1.0,91,0.00,,,0.00,meteohub,2013-03-19 11:45:00,
2013-03-19 04:50:00,47.8,45.7,30.09,SSE,149,0.0,1.0,92,0.00,,,0.00,meteohub,2013-03-19 11:50:00,
2013-03-19 04:55:00,47.7,45.5,30.10,SE,132,0.0,2.0,92,0.00,,,0.00,meteohub,2013-03-19 11:55:00,
2013-03-19 05:00:00,47.7,45.5,30.09,SE,132,0.0,2.0,92,0.00,,,0.00,meteohub,2013-03-19 12:00:00,
2013-03-19 05:05:00,47.5,45.5,30.09,SE,132,0.0,2.0,93,0.00,,,0.00,meteohub,2013-03-19 12:05:00,
2013-03-19 05:10:00,47.1,45.1,30.10,SE,132,0.0,2.0,93,0.00,,,0.00,meteohub,2013-03-19 12:10:00,
2013-03-19 05:15:00,46.9,45.0,30.10,SE,132,0.0,1.0,93,0.00,,,0.00,meteohub,2013-03-19 12:15:00,
2013-03-19 05:20:00,47.1,45.5,30.10,SE,132,0.0,0.0,94,0.00,,,0.00,meteohub,2013-03-19 12:20:00,
2013-03-19 05:25:00,46.6,44.6,30.10,SE,132,0.0,0.0,93,0.00,,,0.00,meteohub,2013-03-19 12:25:00,
2013-03-19 05:30:00,46.6,45.0,30.10,SE,132,0.0,1.0,94,0.00,,,0.00,meteohub,2013-03-19 12:30:00,
2013-03-19 05:35:00,46.8,45.1,30.10,SE,132,0.0,1.0,94,0.00,,,0.00,meteohub,2013-03-19 12:35:00,
2013-03-19 05:40:00,46.8,45.1,30.10,SE,132,0.0,1.0,94,0.00,,,0.00,meteohub,2013-03-19 12:40:00,
2013-03-19 05:45:00,46.6,45.0,30.10,SE,132,0.0,1.0,94,0.00,,,0.00,meteohub,2013-03-19 12:45:00,
2013-03-19 05:50:00,46.6,45.0,30.10,SE,132,0.0,1.0,94,0.00,,,0.00,meteohub,2013-03-19 12:50:00,
2013-03-19 05:55:00,46.6,45.0,30.11,SE,132,0.0,1.0,94,0.00,,,0.00,meteohub,2013-03-19 12:55:00,
2013-03-19 06:00:00,46.4,44.8,30.11,SE,132,0.0,1.0,94,0.00,,,0.00,meteohub,2013-03-19 13:00:00,
2013-03-19 06:06:00,46.2,44.8,30.11,SE,132,0.0,1.0,95,0.00,,,0.00,meteohub,2013-03-19 13:06:00,
2013-03-19 06:11:00,46.0,44.6,30.11,SE,132,0.0,1.0,95,0.00,,,0.00,meteohub,2013-03-19 13:11:00,
2013-03-19 06:16:00,46.4,45.0,30.11,SE,132,0.0,1.0,95,0.00,,,0.00,meteohub,2013-03-19 13:16:00,
2013-03-19 06:21:00,46.2,44.8,30.11,SE,132,0.0,1.0,95,0.00,,,0.00,meteohub,2013-03-19 13:21:00,
2013-03-19 06:26:00,46.0,44.6,30.11,SE,132,0.0,1.0,95,0.00,,,0.00,meteohub,2013-03-19 13:26:00,
2013-03-19 06:31:00,46.0,44.6,30.12,SE,132,0.0,0.0,95,0.00,,,0.00,meteohub,2013-03-19 13:31:00,
2013-03-19 06:36:00,46.2,44.8,30.12,SE,132,0.0,0.0,95,0.00,,,0.00,meteohub,2013-03-19 13:36:00,
2013-03-19 06:41:00,46.4,45.0,30.12,SE,132,1.0,0.0,95,0.00,,,0.00,meteohub,2013-03-19 13:41:00,
2013-03-19 06:47:00,46.6,45.1,30.12,SE,132,0.0,1.0,95,0.00,,,0.00,meteohub,2013-03-19 13:47:00,
2013-03-19 06:52:00,46.2,44.8,30.12,SE,132,0.0,1.0,95,0.00,,,0.00,meteohub,2013-03-19 13:52:00,
2013-03-19 06:57:00,46.2,44.8,30.12,SE,132,0.0,1.0,95,0.00,,,0.00,meteohub,2013-03-19 13:57:00,
2013-03-19 07:02:00,46.2,44.8,30.12,SE,132,0.0,1.0,95,0.00,,,0.00,meteohub,2013-03-19 14:02:00,
2013-03-19 07:07:00,46.6,45.5,30.12,SE,132,0.0,2.0,96,0.00,,,0.00,meteohub,2013-03-19 14:07:00,
2013-03-19 07:12:00,46.8,45.3,30.12,SE,133,1.0,2.0,95,0.00,,,0.00,meteohub,2013-03-19 14:12:00,
2013-03-19 07:17:00,47.3,46.2,30.12,SE,133,0.0,3.0,96,0.00,,,0.00,meteohub,2013-03-19 14:17:00,
2013-03-19 07:22:00,47.5,46.0,30.12,SE,133,0.0,3.0,95,0.00,,,0.00,meteohub,2013-03-19 14:22:00,
2013-03-19 07:27:00,47.7,46.2,30.12,SE,133,1.0,3.0,95,0.00,,,0.00,meteohub,2013-03-19 14:27:00,
2013-03-19 07:32:00,47.8,46.4,30.12,SE,133,0.0,2.0,95,0.00,,,0.00,meteohub,2013-03-19 14:32:00,
2013-03-19 07:37:00,48.0,46.6,30.12,SE,133,0.0,2.0,95,0.00,,,0.00,meteohub,2013-03-19 14:37:00,
2013-03-19 07:42:00,48.4,46.9,30.12,SE,133,0.0,1.0,95,0.00,,,0.00,meteohub,2013-03-19 14:42:00,
2013-03-19 07:47:00,48.7,47.1,30.12,SE,133,0.0,1.0,94,0.00,,,0.00,meteohub,2013-03-19 14:47:00,
2013-03-19 07:53:00,48.7,47.1,30.12,SE,133,0.0,0.0,94,0.00,,,0.00,meteohub,2013-03-19 14:53:00,
2013-03-19 07:58:00,49.3,47.7,30.13,SE,133,0.0,0.0,94,0.00,,,0.00,meteohub,2013-03-19 14:58:00,
2013-03-19 08:03:00,49.8,47.8,30.13,SSE,167,1.0,3.0,93,0.00,,,0.00,meteohub,2013-03-19 15:03:00,
2013-03-19 08:08:00,50.4,48.4,30.13,SSE,167,3.0,3.0,93,0.00,,,0.00,meteohub,2013-03-19 15:08:00,
2013-03-19 08:13:00,50.9,48.7,30.13,SSE,167,2.0,3.0,92,0.00,,,0.00,meteohub,2013-03-19 15:13:00,
2013-03-19 08:18:00,51.3,48.7,30.13,SSE,167,1.0,3.0,91,0.00,,,0.00,meteohub,2013-03-19 15:18:00,
2013-03-19 08:23:00,51.6,49.1,30.13,SSE,167,1.0,3.0,91,0.00,,,0.00,meteohub,2013-03-19 15:23:00,
2013-03-19 08:28:00,52.0,49.1,30.13,SSE,167,0.0,3.0,90,0.00,,,0.00,meteohub,2013-03-19 15:28:00,
2013-03-19 08:33:00,52.3,49.3,30.13,SSE,167,1.0,3.0,89,0.00,,,0.00,meteohub,2013-03-19 15:33:00,
2013-03-19 08:38:00,52.5,49.1,30.13,SSE,167,0.0,3.0,88,0.00,,,0.00,meteohub,2013-03-19 15:38:00,
2013-03-19 08:43:00,52.9,49.5,30.13,SSE,167,0.0,3.0,88,0.00,,,0.00,meteohub,2013-03-19 15:43:00,
2013-03-19 08:48:00,53.1,49.3,30.13,SSE,167,2.0,3.0,87,0.00,,,0.00,meteohub,2013-03-19 15:48:00,
2013-03-19 08:53:00,53.2,48.9,30.13,SSE,168,2.0,3.0,85,0.00,,,0.00,meteohub,2013-03-19 15:53:00,
2013-03-19 08:58:00,53.4,49.1,30.13,SE,128,0.0,4.0,85,0.00,,,0.00,meteohub,2013-03-19 15:58:00,
2013-03-19 09:04:00,53.6,48.9,30.13,SSE,161,2.0,4.0,84,0.00,,,0.00,meteohub,2013-03-19 16:04:00,
2013-03-19 09:09:00,53.8,49.1,30.13,SSE,167,0.0,4.0,84,0.00,,,0.00,meteohub,2013-03-19 16:09:00,
2013-03-19 09:14:00,54.0,49.3,30.14,SE,132,0.0,4.0,84,0.00,,,0.00,meteohub,2013-03-19 16:14:00,
2013-03-19 09:19:00,53.8,49.1,30.14,West,278,0.0,4.0,84,0.00,,,0.00,meteohub,2013-03-19 16:19:00,
2013-03-19 09:24:00,54.0,49.6,30.14,WSW,252,0.0,4.0,85,0.00,,,0.00,meteohub,2013-03-19 16:24:00,
2013-03-19 09:29:00,53.4,49.3,30.15,WNW,297,3.0,3.0,86,0.00,,,0.00,meteohub,2013-03-19 16:29:00,
2013-03-19 09:34:00,52.2,48.4,30.15,NW,304,5.0,8.0,87,0.00,,,0.00,meteohub,2013-03-19 16:34:00,
2013-03-19 09:39:00,51.4,48.4,30.15,NNW,329,4.0,8.0,89,0.00,,,0.00,meteohub,2013-03-19 16:39:00,
2013-03-19 09:44:00,51.3,48.2,30.15,SW,223,3.0,8.0,89,0.00,,,0.00,meteohub,2013-03-19 16:44:00,
2013-03-19 09:49:00,51.1,48.0,30.15,NW,325,0.0,6.0,89,0.00,,,0.00,meteohub,2013-03-19 16:49:00,
2013-03-19 09:54:00,52.2,48.7,30.15,South,170,3.0,6.0,88,0.00,,,0.00,meteohub,2013-03-19 16:54:00,
2013-03-19 09:59:00,53.2,49.5,30.15,South,170,0.0,6.0,87,0.00,,,0.00,meteohub,2013-03-19 16:59:00,
2013-03-19 10:04:00,54.3,48.6,30.14,South,180,3.0,4.0,81,0.00,,,0.00,meteohub,2013-03-19 17:04:00,
2013-03-19 10:09:00,55.4,49.3,30.14,SSE,163,1.0,7.0,80,0.00,,,0.00,meteohub,2013-03-19 17:09:00,
2013-03-19 10:14:00,55.6,49.1,30.14,ESE,107,1.0,7.0,79,0.00,,,0.00,meteohub,2013-03-19 17:14:00,
2013-03-19 10:19:00,55.9,49.1,30.14,SE,145,1.0,7.0,78,0.00,,,0.00,meteohub,2013-03-19 17:19:00,
2013-03-19 10:24:00,56.7,48.4,30.14,SE,145,0.0,4.0,74,0.00,,,0.00,meteohub,2013-03-19 17:24:00,
2013-03-19 10:29:00,57.4,46.6,30.14,SE,145,0.0,4.0,67,0.00,,,0.00,meteohub,2013-03-19 17:29:00,
2013-03-19 10:34:00,58.5,45.5,30.14,SE,145,0.0,3.0,62,0.00,,,0.00,meteohub,2013-03-19 17:34:00,
2013-03-19 10:39:00,59.0,44.8,30.14,North,5,3.0,0.0,59,0.00,,,0.00,meteohub,2013-03-19 17:39:00,
2013-03-19 10:44:00,59.2,40.1,30.14,WNW,300,0.0,0.0,49,0.00,,,0.00,meteohub,2013-03-19 17:44:00,
2013-03-19 10:49:00,59.2,42.1,30.14,North,349,1.0,5.0,53,0.00,,,0.00,meteohub,2013-03-19 17:49:00,
2013-03-19 10:54:00,59.0,44.2,30.14,NW,313,0.0,5.0,58,0.00,,,0.00,meteohub,2013-03-19 17:54:00,
2013-03-19 10:59:00,58.8,47.5,30.14,WNW,294,3.0,5.0,66,0.00,,,0.00,meteohub,2013-03-19 17:59:00,
2013-03-19 11:04:00,58.5,46.8,30.14,NW,314,2.0,4.0,65,0.00,,,0.00,meteohub,2013-03-19 18:04:00,
2013-03-19 11:09:00,58.1,47.7,30.14,NW,311,0.0,4.0,68,0.00,,,0.00,meteohub,2013-03-19 18:09:00,
2013-03-19 11:14:00,59.2,48.2,30.14,SSW,196,5.0,5.0,67,0.00,,,0.00,meteohub,2013-03-19 18:14:00,
2013-03-19 11:19:00,59.2,49.1,30.14,SSW,203,1.0,6.0,69,0.00,,,0.00,meteohub,2013-03-19 18:19:00,
2013-03-19 11:25:00,59.4,47.7,30.14,West,261,0.0,6.0,65,0.00,,,0.00,meteohub,2013-03-19 18:25:00,
2013-03-19 11:30:00,60.4,46.4,30.14,NNW,337,4.0,6.0,60,0.00,,,0.00,meteohub,2013-03-19 18:30:00,
2013-03-19 11:35:00,60.1,45.3,30.15,South,176,4.0,6.0,58,0.00,,,0.00,meteohub,2013-03-19 18:35:00,
2013-03-19 11:40:00,60.1,46.2,30.14,WSW,239,1.0,5.0,60,0.00,,,0.00,meteohub,2013-03-19 18:40:00,
2013-03-19 11:45:00,60.6,44.4,30.15,SSW,199,4.0,5.0,55,0.00,,,0.00,meteohub,2013-03-19 18:45:00,
2013-03-19 11:50:00,60.4,46.0,30.15,WNW,285,1.0,5.0,59,0.00,,,0.00,meteohub,2013-03-19 18:50:00,
2013-03-19 11:55:00,59.9,45.5,30.15,South,178,3.0,5.0,59,0.00,,,0.00,meteohub,2013-03-19 18:55:00,
2013-03-19 12:00:00,58.8,42.6,30.14,South,189,3.0,5.0,55,0.00,,,0.00,meteohub,2013-03-19 19:00:00,
2013-03-19 12:05:00,59.0,45.1,30.14,South,169,3.0,6.0,60,0.00,,,0.00,meteohub,2013-03-19 19:05:00,
2013-03-19 12:10:00,58.5,46.4,30.15,SSW,204,0.0,6.0,64,0.00,,,0.00,meteohub,2013-03-19 19:10:00,
2013-03-19 12:15:00,58.3,46.2,30.15,NW,321,3.0,7.0,64,0.00,,,0.00,meteohub,2013-03-19 19:15:00,
2013-03-19 12:20:00,57.7,47.7,30.15,SW,215,1.0,7.0,69,0.00,,,0.00,meteohub,2013-03-19 19:20:00,
2013-03-19 12:25:00,57.6,47.5,30.15,WNW,299,4.0,7.0,69,0.00,,,0.00,meteohub,2013-03-19 19:25:00,
2013-03-19 12:30:00,57.2,46.8,30.15,WNW,300,4.0,7.0,68,0.00,,,0.00,meteohub,2013-03-19 19:30:00,
2013-03-19 12:35:00,56.8,47.8,30.15,North,355,2.0,7.0,72,0.00,,,0.00,meteohub,2013-03-19 19:35:00,
2013-03-19 12:40:00,56.7,48.0,30.15,NNW,331,2.0,7.0,73,0.00,,,0.00,meteohub,2013-03-19 19:40:00,
2013-03-19 12:45:00,56.1,48.0,30.15,NW,324,3.0,7.0,74,0.00,,,0.00,meteohub,2013-03-19 19:45:00,
2013-03-19 12:50:00,55.9,47.8,30.15,WNW,302,2.0,7.0,74,0.00,,,0.00,meteohub,2013-03-19 19:50:00,
2013-03-19 12:55:00,55.9,48.6,30.15,NNW,338,2.0,8.0,76,0.00,,,0.00,meteohub,2013-03-19 19:55:00,
2013-03-19 13:00:00,55.8,48.0,30.15,WNW,288,3.0,8.0,75,0.00,,,0.00,meteohub,2013-03-19 20:00:00,
2013-03-19 13:05:00,55.8,48.4,30.15,South,181,4.0,8.0,76,0.00,,,0.00,meteohub,2013-03-19 20:05:00,
2013-03-19 13:10:00,55.9,48.9,30.15,NW,307,5.0,7.0,77,0.00,,,0.00,meteohub,2013-03-19 20:10:00,
2013-03-19 13:15:00,56.1,48.7,30.15,SW,219,5.0,8.0,76,0.00,,,0.00,meteohub,2013-03-19 20:15:00,
2013-03-19 13:20:00,55.9,48.6,30.15,NNW,330,8.0,9.0,76,0.00,,,0.00,meteohub,2013-03-19 20:20:00,
2013-03-19 13:25:00,55.6,48.6,30.15,SW,217,2.0,10.0,77,0.00,,,0.00,meteohub,2013-03-19 20:25:00,
2013-03-19 13:30:00,55.6,48.9,30.15,NNW,344,3.0,10.0,78,0.00,,,0.00,meteohub,2013-03-19 20:30:00,
2013-03-19 13:35:00,55.8,48.9,30.15,West,281,6.0,10.0,78,0.00,,,0.00,meteohub,2013-03-19 20:35:00,
2013-03-19 13:40:00,55.0,48.6,30.15,NW,308,3.0,11.0,79,0.00,,,0.00,meteohub,2013-03-19 20:40:00,
2013-03-19 13:45:00,54.9,48.7,30.15,WNW,290,0.0,11.0,80,0.00,,,0.00,meteohub,2013-03-19 20:45:00,
2013-03-19 13:50:00,55.2,49.1,30.14,NW,310,2.0,11.0,80,0.00,,,0.00,meteohub,2013-03-19 20:50:00,
2013-03-19 13:55:00,55.4,48.9,30.14,SSE,159,2.0,8.0,79,0.00,,,0.00,meteohub,2013-03-19 20:55:00,
2013-03-19 14:00:00,56.1,48.7,30.14,WNW,301,1.0,8.0,76,0.00,,,0.00,meteohub,2013-03-19 21:00:00,
2013-03-19 14:05:00,55.9,48.2,30.14,NW,323,6.0,7.0,75,0.00,,,0.00,meteohub,2013-03-19 21:05:00,
2013-03-19 14:10:00,55.8,48.0,30.14,SSE,155,2.0,7.0,75,0.00,,,0.00,meteohub,2013-03-19 21:10:00,
2013-03-19 14:15:00,55.8,47.7,30.14,SSW,204,3.0,7.0,74,0.00,,,0.00,meteohub,2013-03-19 21:15:00,
2013-03-19 14:20:00,56.3,48.2,30.14,SSW,204,2.0,6.0,74,0.00,,,0.00,meteohub,2013-03-19 21:20:00,
2013-03-19 14:25:00,55.9,48.2,30.14,WNW,289,1.0,6.0,75,0.00,,,0.00,meteohub,2013-03-19 21:25:00,
2013-03-19 14:30:00,56.1,47.7,30.14,SSW,207,5.0,7.0,73,0.00,,,0.00,meteohub,2013-03-19 21:30:00,
2013-03-19 14:35:00,55.0,47.3,30.14,SW,229,1.0,9.0,75,0.00,,,0.00,meteohub,2013-03-19 21:35:00,
2013-03-19 14:40:00,54.7,46.9,30.14,SSW,194,3.0,9.0,75,0.00,,,0.00,meteohub,2013-03-19 21:40:00,
2013-03-19 14:46:00,55.2,47.5,30.13,NNW,343,0.0,9.0,75,0.00,,,0.00,meteohub,2013-03-19 21:46:00,
2013-03-19 14:51:00,55.8,47.3,30.13,WSW,246,2.0,7.0,73,0.00,,,0.00,meteohub,2013-03-19 21:51:00,
2013-03-19 14:56:00,55.2,46.4,30.13,SSW,193,5.0,6.0,72,0.00,,,0.00,meteohub,2013-03-19 21:56:00,
2013-03-19 15:01:00,54.9,46.0,30.14,NNW,329,4.0,8.0,72,0.00,,,0.00,meteohub,2013-03-19 22:01:00,
2013-03-19 15:06:00,54.5,46.0,30.13,NNW,340,4.0,8.0,73,0.00,,,0.00,meteohub,2013-03-19 22:06:00,
2013-03-19 15:11:00,54.3,46.6,30.13,NW,322,4.0,8.0,75,0.00,,,0.00,meteohub,2013-03-19 22:11:00,
2013-03-19 15:16:00,54.1,46.4,30.13,NNW,330,2.0,8.0,75,0.00,,,0.00,meteohub,2013-03-19 22:16:00,
2013-03-19 15:21:00,54.3,46.6,30.13,NW,313,3.0,8.0,75,0.00,,,0.00,meteohub,2013-03-19 22:21:00,
2013-03-19 15:27:00,54.1,46.4,30.13,ESE,113,0.0,8.0,75,0.00,,,0.00,meteohub,2013-03-19 22:27:00,
2013-03-19 15:32:00,54.1,45.7,30.14,WNW,301,3.0,9.0,73,0.00,,,0.00,meteohub,2013-03-19 22:32:00,
2013-03-19 15:37:00,54.1,46.0,30.14,NW,317,6.0,9.0,74,0.00,,,0.00,meteohub,2013-03-19 22:37:00,
2013-03-19 15:42:00,54.0,45.5,30.13,SW,216,0.0,9.0,73,0.00,,,0.00,meteohub,2013-03-19 22:42:00,
2013-03-19 15:47:00,54.0,45.1,30.13,NW,305,0.0,9.0,72,0.00,,,0.00,meteohub,2013-03-19 22:47:00,
2013-03-19 15:52:00,54.0,45.5,30.13,NW,311,1.0,7.0,73,0.00,,,0.00,meteohub,2013-03-19 22:52:00,
2013-03-19 15:57:00,54.0,44.8,30.13,SSW,207,2.0,6.0,71,0.00,,,0.00,meteohub,2013-03-19 22:57:00,
2013-03-19 16:02:00,54.0,44.4,30.13,SW,225,2.0,5.0,70,0.00,,,0.00,meteohub,2013-03-19 23:02:00,
2013-03-19 16:07:00,54.1,45.7,30.13,South,179,3.0,5.0,73,0.00,,,0.00,meteohub,2013-03-19 23:07:00,
2013-03-19 16:12:00,54.1,45.7,30.13,South,183,2.0,5.0,73,0.00,,,0.00,meteohub,2013-03-19 23:12:00,
2013-03-19 16:17:00,54.1,46.0,30.14,SSE,163,6.0,7.0,74,0.00,,,0.00,meteohub,2013-03-19 23:17:00,
2013-03-19 16:22:00,54.0,46.6,30.14,South,169,3.0,7.0,76,0.00,,,0.00,meteohub,2013-03-19 23:22:00,
2013-03-19 16:27:00,53.8,47.5,30.14,SSW,208,2.0,9.0,79,0.00,,,0.00,meteohub,2013-03-19 23:27:00,
2013-03-19 16:32:00,53.2,47.3,30.14,South,191,6.0,9.0,80,0.00,,,0.00,meteohub,2013-03-19 23:32:00,
2013-03-19 16:37:00,53.1,47.1,30.15,SSE,153,1.0,9.0,80,0.00,,,0.00,meteohub,2013-03-19 23:37:00,
2013-03-19 16:42:00,53.2,47.5,30.16,ESE,119,10.0,10.0,81,0.00,,,0.00,meteohub,2013-03-19 23:42:00,
2013-03-19 16:47:00,53.1,48.0,30.16,SE,146,0.0,7.0,83,0.00,,,0.00,meteohub,2013-03-19 23:47:00,
2013-03-19 16:52:00,53.1,48.0,30.16,East,90,2.0,10.0,83,0.00,,,0.00,meteohub,2013-03-19 23:52:00,
2013-03-19 16:57:00,52.9,47.8,30.16,NW,314,2.0,10.0,83,0.00,,,0.00,meteohub,2013-03-19 23:57:00,
2013-03-19 17:02:00,52.7,47.7,30.16,ENE,66,2.0,6.0,83,0.00,,,0.00,meteohub,2013-03-20 00:02:00,
2013-03-19 17:07:00,52.3,48.0,30.16,WNW,299,4.0,6.0,85,0.00,,,0.00,meteohub,2013-03-20 00:07:00,
2013-03-19 17:12:00,52.2,47.8,30.16,NW,314,6.0,8.0,85,0.00,,,0.00,meteohub,2013-03-20 00:12:00,
2013-03-19 17:17:00,52.2,46.8,30.16,ESE,112,1.0,8.0,82,0.00,,,0.00,meteohub,2013-03-20 00:17:00,
2013-03-19 17:22:00,52.7,46.4,30.16,SSE,157,3.0,8.0,79,0.00,,,0.00,meteohub,2013-03-20 00:22:00,
2013-03-19 17:27:00,53.1,47.7,30.16,SE,144,1.0,8.0,82,0.00,,,0.00,meteohub,2013-03-20 00:27:00,
2013-03-19 17:33:00,52.9,48.6,30.16,SSE,163,2.0,5.0,85,0.00,,,0.00,meteohub,2013-03-20 00:33:00,
2013-03-19 17:37:00,52.3,48.0,30.15,SE,127,0.0,5.0,85,0.00,,,0.00,meteohub,2013-03-20 00:37:00,
2013-03-19 17:43:00,52.3,48.0,30.15,South,170,2.0,5.0,85,0.00,,,0.00,meteohub,2013-03-20 00:43:00,
2013-03-19 17:48:00,52.5,48.4,30.15,SE,144,2.0,6.0,86,0.00,,,0.00,meteohub,2013-03-20 00:48:00,
2013-03-19 17:53:00,52.5,48.4,30.15,SE,124,3.0,6.0,86,0.00,,,0.00,meteohub,2013-03-20 00:53:00,
2013-03-19 17:58:00,52.3,48.2,30.15,SSE,162,5.0,6.0,86,0.00,,,0.00,meteohub,2013-03-20 00:58:00,
2013-03-19 18:03:00,52.2,48.0,30.15,SE,132,0.0,7.0,86,0.00,,,0.00,meteohub,2013-03-20 01:03:00,
2013-03-19 18:08:00,52.2,48.0,30.15,SSW,208,2.0,7.0,86,0.00,,,0.00,meteohub,2013-03-20 01:08:00,
2013-03-19 18:13:00,52.2,48.0,30.16,SSW,192,0.0,7.0,86,0.00,,,0.00,meteohub,2013-03-20 01:13:00,
2013-03-19 18:18:00,52.2,48.0,30.17,East,96,2.0,5.0,86,0.00,,,0.00,meteohub,2013-03-20 01:18:00,
2013-03-19 18:23:00,51.8,48.0,30.17,WNW,288,2.0,5.0,87,0.00,,,0.00,meteohub,2013-03-20 01:23:00,
2013-03-19 18:28:00,51.4,48.0,30.17,ESE,113,0.0,11.0,88,0.01,,,0.01,meteohub,2013-03-20 01:28:00,
2013-03-19 18:33:00,51.3,47.8,30.17,ESE,121,0.0,11.0,88,0.02,,,0.02,meteohub,2013-03-20 01:33:00,
2013-03-19 18:38:00,50.9,47.8,30.17,ESE,106,1.0,11.0,89,0.03,,,0.03,meteohub,2013-03-20 01:38:00,
2013-03-19 18:43:00,50.4,46.9,30.17,SSE,162,1.0,6.0,88,0.04,,,0.04,meteohub,2013-03-20 01:43:00,
2013-03-19 18:48:00,50.0,46.6,30.17,South,175,0.0,6.0,88,0.04,,,0.04,meteohub,2013-03-20 01:48:00,
2013-03-19 18:53:00,49.6,46.2,30.16,West,269,0.0,6.0,88,0.05,,,0.05,meteohub,2013-03-20 01:53:00,
2013-03-19 18:58:00,49.3,45.5,30.16,South,173,0.0,4.0,87,0.05,,,0.05,meteohub,2013-03-20 01:58:00,
2013-03-19 19:03:00,49.1,45.1,30.16,South,173,0.0,4.0,86,0.05,,,0.05,meteohub,2013-03-20 02:03:00,
2013-03-19 19:08:00,48.9,45.0,30.16,South,173,1.0,3.0,86,0.05,,,0.05,meteohub,2013-03-20 02:08:00,
2013-03-19 19:13:00,49.1,45.1,30.16,South,173,0.0,3.0,86,0.05,,,0.05,meteohub,2013-03-20 02:13:00,
2013-03-19 19:18:00,48.9,45.0,30.15,South,177,3.0,3.0,86,0.06,,,0.06,meteohub,2013-03-20 02:18:00,
2013-03-19 19:23:00,49.1,45.3,30.15,South,177,0.0,3.0,87,0.06,,,0.06,meteohub,2013-03-20 02:23:00,
2013-03-19 19:28:00,49.3,45.9,30.16,South,177,0.0,3.0,88,0.05,,,0.06,meteohub,2013-03-20 02:28:00,
2013-03-19 19:33:00,48.9,45.5,30.16,South,177,0.0,3.0,88,0.04,,,0.06,meteohub,2013-03-20 02:33:00,
2013-03-19 19:38:00,49.1,45.7,30.15,South,175,1.0,2.0,88,0.03,,,0.06,meteohub,2013-03-20 02:38:00,
2013-03-19 19:43:00,48.9,45.9,30.15,South,169,0.0,2.0,89,0.02,,,0.06,meteohub,2013-03-20 02:43:00,
2013-03-19 19:48:00,48.9,45.9,30.15,South,169,0.0,2.0,89,0.03,,,0.07,meteohub,2013-03-20 02:48:00,
2013-03-19 19:53:00,48.9,46.0,30.15,South,169,0.0,2.0,90,0.02,,,0.07,meteohub,2013-03-20 02:53:00,
2013-03-19 19:58:00,48.7,45.9,30.15,South,169,0.0,1.0,90,0.02,,,0.07,meteohub,2013-03-20 02:58:00,
2013-03-19 20:03:00,48.6,45.7,30.14,South,169,0.0,2.0,90,0.02,,,0.07,meteohub,2013-03-20 03:03:00,
2013-03-19 20:08:00,48.4,45.5,30.15,South,169,0.0,2.0,90,0.02,,,0.07,meteohub,2013-03-20 03:08:00,
2013-03-19 20:13:00,48.6,46.0,30.15,East,92,1.0,2.0,91,0.02,,,0.07,meteohub,2013-03-20 03:13:00,
2013-03-19 20:18:00,48.0,45.1,30.14,East,92,0.0,3.0,90,0.01,,,0.07,meteohub,2013-03-20 03:18:00,
2013-03-19 20:23:00,48.2,45.7,30.14,East,92,0.0,3.0,91,0.01,,,0.07,meteohub,2013-03-20 03:23:00,
2013-03-19 20:28:00,48.0,45.5,30.14,East,92,0.0,3.0,91,0.01,,,0.07,meteohub,2013-03-20 03:28:00,
2013-03-19 20:33:00,48.0,45.5,30.14,East,92,0.0,2.0,91,0.01,,,0.07,meteohub,2013-03-20 03:33:00,
2013-03-19 20:38:00,47.8,45.3,30.14,East,92,0.0,1.0,91,0.01,,,0.07,meteohub,2013-03-20 03:38:00,
2013-03-19 20:43:00,47.8,45.0,30.14,ESE,118,0.0,1.0,90,0.01,,,0.07,meteohub,2013-03-20 03:43:00,
2013-03-19 20:48:00,47.8,45.0,30.14,ESE,118,0.0,2.0,90,0.00,,,0.07,meteohub,2013-03-20 03:48:00,
2013-03-19 20:53:00,47.8,45.0,30.13,ESE,119,1.0,2.0,90,0.00,,,0.07,meteohub,2013-03-20 03:53:00,
2013-03-19 20:58:00,48.0,45.1,30.13,ESE,112,2.0,2.0,90,0.00,,,0.07,meteohub,2013-03-20 03:58:00,
2013-03-19 21:00:00,48.0,45.5,30.12,ESE,121,0.0,2.0,91,0.00,,,0.07,meteohub,2013-03-20 04:00:00,
2013-03-19 21:01:00,48.0,45.5,30.12,ESE,121,0.0,4.0,91,0.00,,,0.07,meteohub,2013-03-20 04:01:00,
2013-03-19 21:06:00,48.0,45.5,30.12,South,175,3.0,7.0,91,0.00,,,0.07,meteohub,2013-03-20 04:06:00,
2013-03-19 21:11:00,47.8,45.3,30.12,SSE,159,2.0,7.0,91,0.00,,,0.07,meteohub,2013-03-20 04:11:00,
2013-03-19 21:16:00,47.8,45.0,30.12,SE,138,2.0,8.0,90,0.00,,,0.07,meteohub,2013-03-20 04:16:00,
2013-03-19 21:21:00,47.8,45.0,30.11,SSE,147,0.0,8.0,90,0.00,,,0.07,meteohub,2013-03-20 04:21:00,
2013-03-19 21:26:00,47.7,45.0,30.11,SE,144,4.0,8.0,90,0.00,,,0.07,meteohub,2013-03-20 04:26:00,
2013-03-19 21:31:00,47.7,44.6,30.12,SSE,148,1.0,8.0,89,0.00,,,0.07,meteohub,2013-03-20 04:31:00,
2013-03-19 21:36:00,47.8,44.8,30.12,South,171,2.0,8.0,89,0.00,,,0.07,meteohub,2013-03-20 04:36:00,
2013-03-19 21:42:00,47.8,44.4,30.12,SSE,151,0.0,6.0,88,0.00,,,0.07,meteohub,2013-03-20 04:42:00,
2013-03-19 21:47:00,47.8,44.4,30.12,East,98,2.0,6.0,88,0.00,,,0.07,meteohub,2013-03-20 04:47:00,
2013-03-19 21:52:00,47.8,44.2,30.12,SE,142,5.0,5.0,87,0.00,,,0.07,meteohub,2013-03-20 04:52:00,
2013-03-19 21:57:00,47.8,44.2,30.12,SE,130,0.0,8.0,87,0.00,,,0.07,meteohub,2013-03-20 04:57:00,
2013-03-19 22:02:00,47.8,44.2,30.12,SSE,155,0.0,8.0,87,0.00,,,0.07,meteohub,2013-03-20 05:02:00,
2013-03-19 22:07:00,47.8,44.2,30.12,SSW,206,3.0,8.0,87,0.00,,,0.07,meteohub,2013-03-20 05:07:00,
2013-03-19 22:12:00,48.0,44.1,30.12,South,173,0.0,5.0,86,0.00,,,0.07,meteohub,2013-03-20 05:12:00,
2013-03-19 22:17:00,48.0,44.1,30.12,South,171,0.0,5.0,86,0.00,,,0.07,meteohub,2013-03-20 05:17:00,
2013-03-19 22:22:00,48.0,44.1,30.12,SSE,165,1.0,5.0,86,0.00,,,0.07,meteohub,2013-03-20 05:22:00,
2013-03-19 22:27:00,48.2,44.2,30.12,South,179,3.0,6.0,86,0.00,,,0.07,meteohub,2013-03-20 05:27:00,
2013-03-19 22:32:00,48.4,44.4,30.12,SSW,196,0.0,6.0,86,0.00,,,0.07,meteohub,2013-03-20 05:32:00,
2013-03-19 22:37:00,48.4,44.4,30.12,SSW,198,0.0,6.0,86,0.00,,,0.07,meteohub,2013-03-20 05:37:00,
2013-03-19 22:42:00,48.7,44.8,30.12,SSW,196,0.0,4.0,86,0.00,,,0.07,meteohub,2013-03-20 05:42:00,
2013-03-19 22:47:00,48.9,45.0,30.12,South,169,2.0,3.0,86,0.00,,,0.07,meteohub,2013-03-20 05:47:00,
2013-03-19 22:52:00,49.3,45.3,30.12,South,171,0.0,4.0,86,0.00,,,0.07,meteohub,2013-03-20 05:52:00,
2013-03-19 22:58:00,49.5,45.5,30.12,SE,142,0.0,4.0,86,0.00,,,0.07,meteohub,2013-03-20 05:58:00,
2013-03-19 23:03:00,49.5,45.5,30.12,SSW,199,0.0,4.0,86,0.00,,,0.07,meteohub,2013-03-20 06:03:00,
2013-03-19 23:08:00,49.6,45.7,30.12,SSW,199,0.0,3.0,86,0.00,,,0.07,meteohub,2013-03-20 06:08:00,
2013-03-19 23:13:00,49.5,45.5,30.12,SSW,199,0.0,3.0,86,0.00,,,0.07,meteohub,2013-03-20 06:13:00,
2013-03-19 23:18:00,49.5,45.5,30.12,SSW,199,0.0,2.0,86,0.00,,,0.07,meteohub,2013-03-20 06:18:00,
2013-03-19 23:23:00,49.3,45.3,30.12,ESE,114,3.0,3.0,86,0.00,,,0.07,meteohub,2013-03-20 06:23:00,
2013-03-19 23:28:00,49.1,44.8,30.12,ESE,108,5.0,5.0,85,0.00,,,0.07,meteohub,2013-03-20 06:28:00,
2013-03-19 23:33:00,49.1,45.1,30.12,SE,142,1.0,6.0,86,0.00,,,0.07,meteohub,2013-03-20 06:33:00,
2013-03-19 23:38:00,49.1,44.8,30.12,ESE,103,0.0,6.0,85,0.00,,,0.07,meteohub,2013-03-20 06:38:00,
2013-03-19 23:43:00,49.3,45.3,30.11,SE,139,0.0,7.0,86,0.00,,,0.07,meteohub,2013-03-20 06:43:00,
2013-03-19 23:48:00,49.5,45.5,30.11,SSE,166,0.0,7.0,86,0.00,,,0.07,meteohub,2013-03-20 06:48:00,
2013-03-19 23:53:00,49.6,45.7,30.12,South,183,2.0,7.0,86,0.00,,,0.07,meteohub,2013-03-20 06:53:00,
2013-03-19 23:58:00,49.5,45.5,30.12,SE,142,3.0,5.0,86,0.00,,,0.07,meteohub,2013-03-20 06:58:00,